sensor_id;sensor_type;location;lat;lon;timestamp;temperature;humidity
40738;DHT22;54759;48.094;-1.628;2023-04-29T00:00:15;22.20;60.20
40738;DHT22;54759;48.094;-1.628;2023-04-29T00:03:17;22.10;60.10
40738;DHT22;54759;48.094;-1.628;2023-04-29T00:06:20;22.10;60.30
40738;DHT22;54759;48.094;-1.628;2023-04-29T00:09:24;22.00;60.10
40738;DHT22;54759;48.094;-1.628;2023-04-29T00:12:29;21.90;60.30
40738;DHT22;54759;48.094;-1.628;2023-04-29T00:15:31;22.00;60.20
40738;DHT22;54759;48.094;-1.628;2023-04-29T00:18:33;21.90;60.10
40738;DHT22;54759;48.094;-1.628;2023-04-29T00:21:38;22.20;60.10
40738;DHT22;54759;48.094;-1.628;2023-04-29T00:24:39;21.90;60.10
40738;DHT22;54759;48.094;-1.628;2023-04-29T00:27:41;22.10;60.20
40738;DHT22;54759;48.094;-1.628;2023-04-29T00:30:43;21.90;60.40
40738;DHT22;54759;48.094;-1.628;2023-04-29T00:33:45;22.00;60.30
40738;DHT22;54759;48.094;-1.628;2023-04-29T00:36:46;22.00;60.20
40738;DHT22;54759;48.094;-1.628;2023-04-29T00:39:48;22.20;60.30
40738;DHT22;54759;48.094;-1.628;2023-04-29T00:42:50;22.00;60.60
40738;DHT22;54759;48.094;-1.628;2023-04-29T00:45:51;22.20;60.50
40738;DHT22;54759;48.094;-1.628;2023-04-29T00:48:53;22.10;60.40
40738;DHT22;54759;48.094;-1.628;2023-04-29T00:51:54;21.90;60.10
40738;DHT22;54759;48.094;-1.628;2023-04-29T00:54:57;21.90;60.50
40738;DHT22;54759;48.094;-1.628;2023-04-29T00:58:01;22.10;60.40
40738;DHT22;54759;48.094;-1.628;2023-04-29T01:01:04;22.00;60.20
40738;DHT22;54759;48.094;-1.628;2023-04-29T01:04:07;21.80;60.30
40738;DHT22;54759;48.094;-1.628;2023-04-29T01:07:14;21.90;60.40
40738;DHT22;54759;48.094;-1.628;2023-04-29T01:10:26;22.00;60.30
40738;DHT22;54759;48.094;-1.628;2023-04-29T01:13:34;22.10;60.50
40738;DHT22;54759;48.094;-1.628;2023-04-29T01:16:44;21.90;60.30
40738;DHT22;54759;48.094;-1.628;2023-04-29T01:19:53;22.10;60.40
40738;DHT22;54759;48.094;-1.628;2023-04-29T01:22:56;21.90;61.00
40738;DHT22;54759;48.094;-1.628;2023-04-29T01:25:59;22.10;60.60
40738;DHT22;54759;48.094;-1.628;2023-04-29T01:29:21;21.70;60.30
40738;DHT22;54759;48.094;-1.628;2023-04-29T01:32:40;21.80;60.30
40738;DHT22;54759;48.094;-1.628;2023-04-29T01:36:02;21.90;60.30
40738;DHT22;54759;48.094;-1.628;2023-04-29T01:39:12;21.90;60.30
40738;DHT22;54759;48.094;-1.628;2023-04-29T01:42:21;21.70;60.20
40738;DHT22;54759;48.094;-1.628;2023-04-29T01:45:24;21.80;60.40
40738;DHT22;54759;48.094;-1.628;2023-04-29T01:48:27;21.90;61.20
40738;DHT22;54759;48.094;-1.628;2023-04-29T01:51:32;22.10;60.70
40738;DHT22;54759;48.094;-1.628;2023-04-29T01:54:35;22.00;58.10
40738;DHT22;54759;48.094;-1.628;2023-04-29T01:57:38;21.90;60.70
40738;DHT22;54759;48.094;-1.628;2023-04-29T02:00:50;21.80;60.60
40738;DHT22;54759;48.094;-1.628;2023-04-29T02:03:53;21.90;60.70
40738;DHT22;54759;48.094;-1.628;2023-04-29T02:06:54;21.60;60.60
40738;DHT22;54759;48.094;-1.628;2023-04-29T02:09:58;21.80;60.70
40738;DHT22;54759;48.094;-1.628;2023-04-29T02:13:00;21.90;60.70
40738;DHT22;54759;48.094;-1.628;2023-04-29T02:16:08;21.60;60.50
40738;DHT22;54759;48.094;-1.628;2023-04-29T02:19:12;21.70;60.50
40738;DHT22;54759;48.094;-1.628;2023-04-29T02:22:14;21.70;60.80
40738;DHT22;54759;48.094;-1.628;2023-04-29T02:25:15;22.30;60.60
40738;DHT22;54759;48.094;-1.628;2023-04-29T02:28:17;21.90;60.80
40738;DHT22;54759;48.094;-1.628;2023-04-29T02:31:19;21.90;60.80
40738;DHT22;54759;48.094;-1.628;2023-04-29T02:34:25;21.90;60.70
40738;DHT22;54759;48.094;-1.628;2023-04-29T02:37:27;21.70;60.30
40738;DHT22;54759;48.094;-1.628;2023-04-29T02:40:28;21.80;60.50
40738;DHT22;54759;48.094;-1.628;2023-04-29T02:43:30;21.80;60.90
40738;DHT22;54759;48.094;-1.628;2023-04-29T02:46:33;21.60;60.50
40738;DHT22;54759;48.094;-1.628;2023-04-29T02:49:36;21.80;60.60
40738;DHT22;54759;48.094;-1.628;2023-04-29T02:52:39;22.00;60.70
40738;DHT22;54759;48.094;-1.628;2023-04-29T02:55:41;21.60;60.10
40738;DHT22;54759;48.094;-1.628;2023-04-29T02:58:44;21.70;60.40
40738;DHT22;54759;48.094;-1.628;2023-04-29T03:01:46;21.90;60.50
40738;DHT22;54759;48.094;-1.628;2023-04-29T03:04:48;21.80;60.50
40738;DHT22;54759;48.094;-1.628;2023-04-29T03:07:49;21.60;60.40
40738;DHT22;54759;48.094;-1.628;2023-04-29T03:10:50;21.70;60.70
40738;DHT22;54759;48.094;-1.628;2023-04-29T03:13:53;21.80;61.10
40738;DHT22;54759;48.094;-1.628;2023-04-29T03:16:57;21.80;60.70
40738;DHT22;54759;48.094;-1.628;2023-04-29T03:19:59;21.80;60.90
40738;DHT22;54759;48.094;-1.628;2023-04-29T03:23:01;21.80;61.00
40738;DHT22;54759;48.094;-1.628;2023-04-29T03:26:03;22.00;61.00
40738;DHT22;54759;48.094;-1.628;2023-04-29T03:29:05;21.80;61.10
40738;DHT22;54759;48.094;-1.628;2023-04-29T03:32:07;21.80;61.50
40738;DHT22;54759;48.094;-1.628;2023-04-29T03:35:12;21.80;61.90
40738;DHT22;54759;48.094;-1.628;2023-04-29T03:38:35;21.80;61.40
40738;DHT22;54759;48.094;-1.628;2023-04-29T03:41:38;21.40;61.30
40738;DHT22;54759;48.094;-1.628;2023-04-29T03:44:41;21.70;61.50
40738;DHT22;54759;48.094;-1.628;2023-04-29T03:47:43;21.80;61.60
40738;DHT22;54759;48.094;-1.628;2023-04-29T03:50:45;21.70;61.70
40738;DHT22;54759;48.094;-1.628;2023-04-29T03:53:47;21.60;61.60
40738;DHT22;54759;48.094;-1.628;2023-04-29T03:56:49;21.70;61.30
40738;DHT22;54759;48.094;-1.628;2023-04-29T03:59:51;21.80;61.90
40738;DHT22;54759;48.094;-1.628;2023-04-29T04:02:52;21.60;61.80
40738;DHT22;54759;48.094;-1.628;2023-04-29T04:05:55;21.70;62.00
40738;DHT22;54759;48.094;-1.628;2023-04-29T04:08:57;21.70;62.00
40738;DHT22;54759;48.094;-1.628;2023-04-29T04:12:02;21.50;62.10
40738;DHT22;54759;48.094;-1.628;2023-04-29T04:15:05;21.70;62.20
40738;DHT22;54759;48.094;-1.628;2023-04-29T04:18:07;21.80;62.30
40738;DHT22;54759;48.094;-1.628;2023-04-29T04:21:10;21.80;62.50
40738;DHT22;54759;48.094;-1.628;2023-04-29T04:24:15;21.70;62.30
40738;DHT22;54759;48.094;-1.628;2023-04-29T04:27:16;21.70;62.50
40738;DHT22;54759;48.094;-1.628;2023-04-29T04:30:21;21.40;62.80
40738;DHT22;54759;48.094;-1.628;2023-04-29T04:33:23;21.70;62.90
40738;DHT22;54759;48.094;-1.628;2023-04-29T04:36:25;21.70;63.00
40738;DHT22;54759;48.094;-1.628;2023-04-29T04:39:27;21.80;63.10
40738;DHT22;54759;48.094;-1.628;2023-04-29T04:42:31;21.70;63.00
40738;DHT22;54759;48.094;-1.628;2023-04-29T04:45:34;21.70;63.40
40738;DHT22;54759;48.094;-1.628;2023-04-29T04:48:35;21.70;63.40
40738;DHT22;54759;48.094;-1.628;2023-04-29T04:51:36;21.60;63.70
40738;DHT22;54759;48.094;-1.628;2023-04-29T04:54:39;21.80;64.10
40738;DHT22;54759;48.094;-1.628;2023-04-29T04:57:49;21.70;63.50
40738;DHT22;54759;48.094;-1.628;2023-04-29T05:00:52;21.60;64.00
40738;DHT22;54759;48.094;-1.628;2023-04-29T05:03:57;21.60;64.10
40738;DHT22;54759;48.094;-1.628;2023-04-29T05:06:59;21.70;64.30
40738;DHT22;54759;48.094;-1.628;2023-04-29T05:10:06;21.60;64.60
40738;DHT22;54759;48.094;-1.628;2023-04-29T05:13:14;21.70;64.50
40738;DHT22;54759;48.094;-1.628;2023-04-29T05:16:16;21.40;65.20
40738;DHT22;54759;48.094;-1.628;2023-04-29T05:19:20;21.50;64.90
40738;DHT22;54759;48.094;-1.628;2023-04-29T05:22:22;21.40;65.00
40738;DHT22;54759;48.094;-1.628;2023-04-29T05:25:24;21.60;65.10
40738;DHT22;54759;48.094;-1.628;2023-04-29T05:28:28;21.70;65.00
40738;DHT22;54759;48.094;-1.628;2023-04-29T05:31:31;21.40;65.10
40738;DHT22;54759;48.094;-1.628;2023-04-29T05:34:36;21.60;65.20
40738;DHT22;54759;48.094;-1.628;2023-04-29T05:37:38;21.60;65.50
40738;DHT22;54759;48.094;-1.628;2023-04-29T05:40:53;21.60;65.60
40738;DHT22;54759;48.094;-1.628;2023-04-29T05:44:10;21.70;65.70
40738;DHT22;54759;48.094;-1.628;2023-04-29T05:47:12;21.60;65.90
40738;DHT22;54759;48.094;-1.628;2023-04-29T05:50:16;21.60;64.00
40738;DHT22;54759;48.094;-1.628;2023-04-29T05:53:18;21.40;65.50
40738;DHT22;54759;48.094;-1.628;2023-04-29T05:56:23;21.60;66.20
40738;DHT22;54759;48.094;-1.628;2023-04-29T05:59:25;21.50;66.30
40738;DHT22;54759;48.094;-1.628;2023-04-29T06:02:30;21.60;66.50
40738;DHT22;54759;48.094;-1.628;2023-04-29T06:05:32;21.40;66.60
40738;DHT22;54759;48.094;-1.628;2023-04-29T06:08:56;21.60;66.80
40738;DHT22;54759;48.094;-1.628;2023-04-29T06:12:02;21.50;67.00
40738;DHT22;54759;48.094;-1.628;2023-04-29T06:15:07;21.60;67.00
40738;DHT22;54759;48.094;-1.628;2023-04-29T06:18:09;21.60;67.10
40738;DHT22;54759;48.094;-1.628;2023-04-29T06:21:11;21.60;67.40
40738;DHT22;54759;48.094;-1.628;2023-04-29T06:24:12;21.60;67.60
40738;DHT22;54759;48.094;-1.628;2023-04-29T06:27:13;21.60;68.00
40738;DHT22;54759;48.094;-1.628;2023-04-29T06:30:15;21.60;68.80
40738;DHT22;54759;48.094;-1.628;2023-04-29T06:33:18;21.40;68.70
40738;DHT22;54759;48.094;-1.628;2023-04-29T06:36:23;21.20;68.50
40738;DHT22;54759;48.094;-1.628;2023-04-29T06:39:41;21.50;69.10
40738;DHT22;54759;48.094;-1.628;2023-04-29T06:43:03;21.60;69.10
40738;DHT22;54759;48.094;-1.628;2023-04-29T06:46:25;21.20;69.00
40738;DHT22;54759;48.094;-1.628;2023-04-29T06:49:38;21.50;69.00
40738;DHT22;54759;48.094;-1.628;2023-04-29T06:52:39;21.40;69.40
40738;DHT22;54759;48.094;-1.628;2023-04-29T06:55:43;21.50;69.50
40738;DHT22;54759;48.094;-1.628;2023-04-29T06:58:46;21.50;69.30
40738;DHT22;54759;48.094;-1.628;2023-04-29T07:01:47;21.30;69.50
40738;DHT22;54759;48.094;-1.628;2023-04-29T07:04:54;21.50;69.70
40738;DHT22;54759;48.094;-1.628;2023-04-29T07:07:55;21.60;69.60
40738;DHT22;54759;48.094;-1.628;2023-04-29T07:10:59;21.60;69.70
40738;DHT22;54759;48.094;-1.628;2023-04-29T07:14:00;21.60;69.60
40738;DHT22;54759;48.094;-1.628;2023-04-29T07:17:04;21.90;70.10
40738;DHT22;54759;48.094;-1.628;2023-04-29T07:20:07;21.30;69.50
40738;DHT22;54759;48.094;-1.628;2023-04-29T07:23:09;21.50;69.50
40738;DHT22;54759;48.094;-1.628;2023-04-29T07:26:11;21.50;70.00
40738;DHT22;54759;48.094;-1.628;2023-04-29T07:29:16;21.60;70.10
40738;DHT22;54759;48.094;-1.628;2023-04-29T07:32:18;21.70;70.20
40738;DHT22;54759;48.094;-1.628;2023-04-29T07:35:20;21.50;70.40
40738;DHT22;54759;48.094;-1.628;2023-04-29T07:38:25;21.60;70.70
40738;DHT22;54759;48.094;-1.628;2023-04-29T07:41:31;21.60;70.70
40738;DHT22;54759;48.094;-1.628;2023-04-29T07:44:35;21.70;68.60
40738;DHT22;54759;48.094;-1.628;2023-04-29T07:47:37;21.60;70.30
40738;DHT22;54759;48.094;-1.628;2023-04-29T07:50:39;21.50;70.20
40738;DHT22;54759;48.094;-1.628;2023-04-29T07:53:41;21.60;70.30
40738;DHT22;54759;48.094;-1.628;2023-04-29T07:56:43;21.50;70.40
40738;DHT22;54759;48.094;-1.628;2023-04-29T07:59:44;21.40;70.50
40738;DHT22;54759;48.094;-1.628;2023-04-29T08:02:46;21.50;70.20
40738;DHT22;54759;48.094;-1.628;2023-04-29T08:05:52;21.60;70.30
40738;DHT22;54759;48.094;-1.628;2023-04-29T08:08:56;21.50;70.40
40738;DHT22;54759;48.094;-1.628;2023-04-29T08:11:57;21.60;70.10
40738;DHT22;54759;48.094;-1.628;2023-04-29T08:14:59;21.60;70.40
40738;DHT22;54759;48.094;-1.628;2023-04-29T08:18:02;21.70;70.90
40738;DHT22;54759;48.094;-1.628;2023-04-29T08:21:06;21.50;70.60
40738;DHT22;54759;48.094;-1.628;2023-04-29T08:24:07;21.60;70.40
40738;DHT22;54759;48.094;-1.628;2023-04-29T08:27:09;21.60;70.50
40738;DHT22;54759;48.094;-1.628;2023-04-29T08:30:11;21.60;71.20
40738;DHT22;54759;48.094;-1.628;2023-04-29T08:33:13;21.60;70.50
40738;DHT22;54759;48.094;-1.628;2023-04-29T08:36:15;21.60;70.30
40738;DHT22;54759;48.094;-1.628;2023-04-29T08:39:16;21.70;70.50
40738;DHT22;54759;48.094;-1.628;2023-04-29T08:42:18;21.60;70.30
40738;DHT22;54759;48.094;-1.628;2023-04-29T08:45:22;21.80;70.60
40738;DHT22;54759;48.094;-1.628;2023-04-29T08:48:25;21.70;70.40
40738;DHT22;54759;48.094;-1.628;2023-04-29T08:51:29;21.80;70.40
40738;DHT22;54759;48.094;-1.628;2023-04-29T08:54:33;21.40;70.20
40738;DHT22;54759;48.094;-1.628;2023-04-29T08:57:36;21.60;70.30
40738;DHT22;54759;48.094;-1.628;2023-04-29T09:00:40;21.70;70.40
40738;DHT22;54759;48.094;-1.628;2023-04-29T09:03:45;21.70;70.10
40738;DHT22;54759;48.094;-1.628;2023-04-29T09:06:52;21.60;70.10
40738;DHT22;54759;48.094;-1.628;2023-04-29T09:09:59;21.80;70.10
40738;DHT22;54759;48.094;-1.628;2023-04-29T09:13:01;21.70;70.10
40738;DHT22;54759;48.094;-1.628;2023-04-29T09:16:03;21.70;70.30
40738;DHT22;54759;48.094;-1.628;2023-04-29T09:19:06;21.60;70.90
40738;DHT22;54759;48.094;-1.628;2023-04-29T09:22:08;21.60;70.30
40738;DHT22;54759;48.094;-1.628;2023-04-29T09:25:12;21.70;70.30
40738;DHT22;54759;48.094;-1.628;2023-04-29T09:28:14;21.70;70.20
40738;DHT22;54759;48.094;-1.628;2023-04-29T09:31:26;21.70;70.30
40738;DHT22;54759;48.094;-1.628;2023-04-29T09:34:32;21.70;70.50
40738;DHT22;54759;48.094;-1.628;2023-04-29T09:37:37;21.80;70.30
40738;DHT22;54759;48.094;-1.628;2023-04-29T09:40:39;21.80;70.50
40738;DHT22;54759;48.094;-1.628;2023-04-29T09:44:02;21.80;70.70
40738;DHT22;54759;48.094;-1.628;2023-04-29T09:47:06;21.70;70.20
40738;DHT22;54759;48.094;-1.628;2023-04-29T09:50:12;21.70;70.10
40738;DHT22;54759;48.094;-1.628;2023-04-29T09:53:27;21.70;70.20
40738;DHT22;54759;48.094;-1.628;2023-04-29T09:56:48;21.70;70.30
40738;DHT22;54759;48.094;-1.628;2023-04-29T09:59:52;21.80;70.30
40738;DHT22;54759;48.094;-1.628;2023-04-29T10:02:55;21.80;70.20
40738;DHT22;54759;48.094;-1.628;2023-04-29T10:05:59;21.60;70.20
40738;DHT22;54759;48.094;-1.628;2023-04-29T10:09:02;21.60;70.40
40738;DHT22;54759;48.094;-1.628;2023-04-29T10:12:06;21.80;70.20
40738;DHT22;54759;48.094;-1.628;2023-04-29T10:15:19;22.10;67.70
40738;DHT22;54759;48.094;-1.628;2023-04-29T10:18:21;21.80;70.20
40738;DHT22;54759;48.094;-1.628;2023-04-29T10:21:27;21.80;70.30
40738;DHT22;54759;48.094;-1.628;2023-04-29T10:24:40;21.80;70.50
40738;DHT22;54759;48.094;-1.628;2023-04-29T10:27:48;21.80;70.70
40738;DHT22;54759;48.094;-1.628;2023-04-29T10:30:53;21.90;70.60
40738;DHT22;54759;48.094;-1.628;2023-04-29T10:33:58;21.90;71.00
40738;DHT22;54759;48.094;-1.628;2023-04-29T10:37:04;21.80;70.80
40738;DHT22;54759;48.094;-1.628;2023-04-29T10:40:11;21.90;71.00
40738;DHT22;54759;48.094;-1.628;2023-04-29T10:43:14;22.00;70.90
40738;DHT22;54759;48.094;-1.628;2023-04-29T10:46:19;22.00;71.00
40738;DHT22;54759;48.094;-1.628;2023-04-29T10:49:21;22.10;71.00
40738;DHT22;54759;48.094;-1.628;2023-04-29T10:52:26;22.00;70.80
40738;DHT22;54759;48.094;-1.628;2023-04-29T10:55:28;22.00;71.00
40738;DHT22;54759;48.094;-1.628;2023-04-29T10:58:42;22.00;70.30
40738;DHT22;54759;48.094;-1.628;2023-04-29T11:01:47;22.00;70.30
40738;DHT22;54759;48.094;-1.628;2023-04-29T11:05:10;21.90;70.10
40738;DHT22;54759;48.094;-1.628;2023-04-29T11:08:13;22.00;70.30
40738;DHT22;54759;48.094;-1.628;2023-04-29T11:11:17;22.10;70.20
40738;DHT22;54759;48.094;-1.628;2023-04-29T11:14:23;22.10;70.10
40738;DHT22;54759;48.094;-1.628;2023-04-29T11:17:25;22.20;70.10
40738;DHT22;54759;48.094;-1.628;2023-04-29T11:20:29;22.20;70.10
40738;DHT22;54759;48.094;-1.628;2023-04-29T11:23:31;22.10;70.10
40738;DHT22;54759;48.094;-1.628;2023-04-29T11:26:35;22.00;69.90
40738;DHT22;54759;48.094;-1.628;2023-04-29T11:29:37;22.20;69.90
40738;DHT22;54759;48.094;-1.628;2023-04-29T11:32:39;22.00;70.00
40738;DHT22;54759;48.094;-1.628;2023-04-29T11:35:42;22.20;69.90
40738;DHT22;54759;48.094;-1.628;2023-04-29T11:38:45;22.10;70.10
40738;DHT22;54759;48.094;-1.628;2023-04-29T11:41:49;22.30;70.10
40738;DHT22;54759;48.094;-1.628;2023-04-29T11:44:54;22.30;70.00
40738;DHT22;54759;48.094;-1.628;2023-04-29T11:47:58;22.10;69.80
40738;DHT22;54759;48.094;-1.628;2023-04-29T11:50:59;22.30;70.10
40738;DHT22;54759;48.094;-1.628;2023-04-29T11:54:00;22.40;70.40
40738;DHT22;54759;48.094;-1.628;2023-04-29T11:57:02;22.20;69.90
40738;DHT22;54759;48.094;-1.628;2023-04-29T12:00:07;22.30;70.10
40738;DHT22;54759;48.094;-1.628;2023-04-29T12:03:13;22.30;69.70
40738;DHT22;54759;48.094;-1.628;2023-04-29T12:06:15;22.40;69.70
40738;DHT22;54759;48.094;-1.628;2023-04-29T12:09:16;22.20;70.00
40738;DHT22;54759;48.094;-1.628;2023-04-29T12:12:22;22.40;70.10
40738;DHT22;54759;48.094;-1.628;2023-04-29T12:15:24;22.50;70.00
40738;DHT22;54759;48.094;-1.628;2023-04-29T12:18:26;22.50;70.00
40738;DHT22;54759;48.094;-1.628;2023-04-29T12:21:28;22.50;69.90
40738;DHT22;54759;48.094;-1.628;2023-04-29T12:24:33;22.40;70.00
40738;DHT22;54759;48.094;-1.628;2023-04-29T12:27:39;22.50;69.80
40738;DHT22;54759;48.094;-1.628;2023-04-29T12:30:43;22.50;69.80
40738;DHT22;54759;48.094;-1.628;2023-04-29T12:33:44;22.50;69.90
40738;DHT22;54759;48.094;-1.628;2023-04-29T12:36:45;22.50;69.80
40738;DHT22;54759;48.094;-1.628;2023-04-29T12:39:48;22.60;70.20
40738;DHT22;54759;48.094;-1.628;2023-04-29T12:42:53;22.60;69.60
40738;DHT22;54759;48.094;-1.628;2023-04-29T12:45:59;22.70;69.70
40738;DHT22;54759;48.094;-1.628;2023-04-29T12:49:02;22.70;69.40
40738;DHT22;54759;48.094;-1.628;2023-04-29T12:52:04;22.70;70.10
40738;DHT22;54759;48.094;-1.628;2023-04-29T12:55:10;22.70;69.50
40738;DHT22;54759;48.094;-1.628;2023-04-29T12:58:12;22.80;69.30
40738;DHT22;54759;48.094;-1.628;2023-04-29T13:01:14;22.80;69.20
40738;DHT22;54759;48.094;-1.628;2023-04-29T13:04:19;22.80;69.20
40738;DHT22;54759;48.094;-1.628;2023-04-29T13:07:21;22.90;69.10
40738;DHT22;54759;48.094;-1.628;2023-04-29T13:10:23;22.70;69.00
40738;DHT22;54759;48.094;-1.628;2023-04-29T13:13:25;22.90;69.00
40738;DHT22;54759;48.094;-1.628;2023-04-29T13:16:29;23.00;67.00
40738;DHT22;54759;48.094;-1.628;2023-04-29T13:19:34;22.90;68.60
40738;DHT22;54759;48.094;-1.628;2023-04-29T13:22:51;22.80;68.50
40738;DHT22;54759;48.094;-1.628;2023-04-29T13:25:53;23.00;68.10
40738;DHT22;54759;48.094;-1.628;2023-04-29T13:28:56;23.00;68.10
40738;DHT22;54759;48.094;-1.628;2023-04-29T13:31:57;22.90;68.30
40738;DHT22;54759;48.094;-1.628;2023-04-29T13:34:59;23.10;68.10
40738;DHT22;54759;48.094;-1.628;2023-04-29T13:38:04;23.00;65.90
40738;DHT22;54759;48.094;-1.628;2023-04-29T13:41:05;23.00;67.80
40738;DHT22;54759;48.094;-1.628;2023-04-29T13:44:16;23.20;68.10
40738;DHT22;54759;48.094;-1.628;2023-04-29T13:47:36;23.10;67.20
40738;DHT22;54759;48.094;-1.628;2023-04-29T13:50:57;23.30;67.30
40738;DHT22;54759;48.094;-1.628;2023-04-29T13:54:19;23.70;67.80
40738;DHT22;54759;48.094;-1.628;2023-04-29T13:57:23;23.20;67.10
40738;DHT22;54759;48.094;-1.628;2023-04-29T14:00:47;23.30;66.90
40738;DHT22;54759;48.094;-1.628;2023-04-29T14:04:09;23.50;66.70
40738;DHT22;54759;48.094;-1.628;2023-04-29T14:07:11;23.30;67.00
40738;DHT22;54759;48.094;-1.628;2023-04-29T14:10:12;23.40;66.50
40738;DHT22;54759;48.094;-1.628;2023-04-29T14:13:13;23.60;66.70
40738;DHT22;54759;48.094;-1.628;2023-04-29T14:16:16;23.30;65.80
40738;DHT22;54759;48.094;-1.628;2023-04-29T14:19:18;23.40;65.70
40738;DHT22;54759;48.094;-1.628;2023-04-29T14:22:19;23.40;65.90
40738;DHT22;54759;48.094;-1.628;2023-04-29T14:25:21;23.40;65.50
40738;DHT22;54759;48.094;-1.628;2023-04-29T14:28:23;23.50;65.50
40738;DHT22;54759;48.094;-1.628;2023-04-29T14:31:25;23.80;65.80
40738;DHT22;54759;48.094;-1.628;2023-04-29T14:34:28;23.50;64.80
40738;DHT22;54759;48.094;-1.628;2023-04-29T14:37:29;23.30;64.50
40738;DHT22;54759;48.094;-1.628;2023-04-29T14:40:31;23.80;64.80
40738;DHT22;54759;48.094;-1.628;2023-04-29T14:43:32;23.60;64.60
40738;DHT22;54759;48.094;-1.628;2023-04-29T14:46:34;23.70;64.30
40738;DHT22;54759;48.094;-1.628;2023-04-29T14:49:36;23.60;63.70
40738;DHT22;54759;48.094;-1.628;2023-04-29T14:52:37;23.60;63.00
40738;DHT22;54759;48.094;-1.628;2023-04-29T14:55:39;23.60;62.50
40738;DHT22;54759;48.094;-1.628;2023-04-29T14:58:40;23.70;61.90
40738;DHT22;54759;48.094;-1.628;2023-04-29T15:01:42;23.70;61.60
40738;DHT22;54759;48.094;-1.628;2023-04-29T15:04:44;23.70;60.80
40738;DHT22;54759;48.094;-1.628;2023-04-29T15:07:48;23.80;60.50
40738;DHT22;54759;48.094;-1.628;2023-04-29T15:10:52;23.80;59.80
40738;DHT22;54759;48.094;-1.628;2023-04-29T15:13:53;23.90;59.20
40738;DHT22;54759;48.094;-1.628;2023-04-29T15:16:55;23.70;58.60
40738;DHT22;54759;48.094;-1.628;2023-04-29T15:19:57;23.70;58.00
40738;DHT22;54759;48.094;-1.628;2023-04-29T15:23:01;23.80;57.40
40738;DHT22;54759;48.094;-1.628;2023-04-29T15:26:03;24.00;56.80
40738;DHT22;54759;48.094;-1.628;2023-04-29T15:29:07;23.90;54.60
40738;DHT22;54759;48.094;-1.628;2023-04-29T15:32:09;24.00;53.00
40738;DHT22;54759;48.094;-1.628;2023-04-29T15:35:11;24.00;52.40
40738;DHT22;54759;48.094;-1.628;2023-04-29T15:38:13;24.00;52.00
40738;DHT22;54759;48.094;-1.628;2023-04-29T15:41:14;23.70;51.50
40738;DHT22;54759;48.094;-1.628;2023-04-29T15:44:18;24.30;52.10
40738;DHT22;54759;48.094;-1.628;2023-04-29T15:47:20;23.70;51.40
40738;DHT22;54759;48.094;-1.628;2023-04-29T15:50:22;23.90;51.20
40738;DHT22;54759;48.094;-1.628;2023-04-29T15:53:24;24.10;50.80
40738;DHT22;54759;48.094;-1.628;2023-04-29T15:56:29;23.90;50.70
40738;DHT22;54759;48.094;-1.628;2023-04-29T15:59:31;24.20;50.30
40738;DHT22;54759;48.094;-1.628;2023-04-29T16:02:33;23.90;51.00
40738;DHT22;54759;48.094;-1.628;2023-04-29T16:05:34;23.90;50.30
40738;DHT22;54759;48.094;-1.628;2023-04-29T16:08:36;24.00;50.40
40738;DHT22;54759;48.094;-1.628;2023-04-29T16:11:38;23.90;50.30
40738;DHT22;54759;48.094;-1.628;2023-04-29T16:14:39;23.80;50.70
40738;DHT22;54759;48.094;-1.628;2023-04-29T16:17:41;23.90;50.30
40738;DHT22;54759;48.094;-1.628;2023-04-29T16:20:43;23.50;50.10
40738;DHT22;54759;48.094;-1.628;2023-04-29T16:23:45;23.80;50.20
40738;DHT22;54759;48.094;-1.628;2023-04-29T16:26:46;24.00;50.40
40738;DHT22;54759;48.094;-1.628;2023-04-29T16:29:49;24.00;50.20
40738;DHT22;54759;48.094;-1.628;2023-04-29T16:32:53;23.60;50.20
40738;DHT22;54759;48.094;-1.628;2023-04-29T16:35:55;23.50;50.20
40738;DHT22;54759;48.094;-1.628;2023-04-29T16:38:58;23.60;50.00
40738;DHT22;54759;48.094;-1.628;2023-04-29T16:41:59;23.90;50.10
40738;DHT22;54759;48.094;-1.628;2023-04-29T16:45:01;23.60;50.10
40738;DHT22;54759;48.094;-1.628;2023-04-29T16:48:03;24.00;50.20
40738;DHT22;54759;48.094;-1.628;2023-04-29T16:51:05;23.80;50.30
40738;DHT22;54759;48.094;-1.628;2023-04-29T16:54:06;24.00;50.00
40738;DHT22;54759;48.094;-1.628;2023-04-29T16:57:12;24.00;50.00
40738;DHT22;54759;48.094;-1.628;2023-04-29T17:00:14;24.10;48.00
40738;DHT22;54759;48.094;-1.628;2023-04-29T17:03:16;24.00;49.80
40738;DHT22;54759;48.094;-1.628;2023-04-29T17:06:17;23.90;49.70
40738;DHT22;54759;48.094;-1.628;2023-04-29T17:09:19;23.80;49.70
40738;DHT22;54759;48.094;-1.628;2023-04-29T17:12:23;24.00;49.70
40738;DHT22;54759;48.094;-1.628;2023-04-29T17:15:25;23.90;49.70
40738;DHT22;54759;48.094;-1.628;2023-04-29T17:18:29;24.00;49.70
40738;DHT22;54759;48.094;-1.628;2023-04-29T17:21:30;24.00;49.60
40738;DHT22;54759;48.094;-1.628;2023-04-29T17:24:33;24.00;49.50
40738;DHT22;54759;48.094;-1.628;2023-04-29T17:27:34;23.90;49.50
40738;DHT22;54759;48.094;-1.628;2023-04-29T17:30:36;23.80;49.10
40738;DHT22;54759;48.094;-1.628;2023-04-29T17:33:38;24.10;49.60
40738;DHT22;54759;48.094;-1.628;2023-04-29T17:36:44;24.10;49.70
40738;DHT22;54759;48.094;-1.628;2023-04-29T17:39:46;23.90;49.60
40738;DHT22;54759;48.094;-1.628;2023-04-29T17:42:47;24.00;49.70
40738;DHT22;54759;48.094;-1.628;2023-04-29T17:45:49;24.20;50.30
40738;DHT22;54759;48.094;-1.628;2023-04-29T17:48:51;23.80;49.80
40738;DHT22;54759;48.094;-1.628;2023-04-29T17:51:52;24.00;50.00
40738;DHT22;54759;48.094;-1.628;2023-04-29T17:54:55;23.90;49.60
40738;DHT22;54759;48.094;-1.628;2023-04-29T17:57:57;24.00;47.90
40738;DHT22;54759;48.094;-1.628;2023-04-29T18:00:58;23.70;49.70
40738;DHT22;54759;48.094;-1.628;2023-04-29T18:04:02;23.90;49.80
40738;DHT22;54759;48.094;-1.628;2023-04-29T18:07:04;23.80;49.60
40738;DHT22;54759;48.094;-1.628;2023-04-29T18:10:06;23.70;49.70
40738;DHT22;54759;48.094;-1.628;2023-04-29T18:13:08;24.00;49.60
40738;DHT22;54759;48.094;-1.628;2023-04-29T18:16:10;24.00;49.70
40738;DHT22;54759;48.094;-1.628;2023-04-29T18:19:15;23.80;49.40
40738;DHT22;54759;48.094;-1.628;2023-04-29T18:22:16;24.00;49.60
40738;DHT22;54759;48.094;-1.628;2023-04-29T18:25:18;24.00;49.60
40738;DHT22;54759;48.094;-1.628;2023-04-29T18:28:19;23.80;49.60
40738;DHT22;54759;48.094;-1.628;2023-04-29T18:31:26;24.00;49.80
40738;DHT22;54759;48.094;-1.628;2023-04-29T18:34:28;23.60;49.70
40738;DHT22;54759;48.094;-1.628;2023-04-29T18:37:29;23.90;50.00
40738;DHT22;54759;48.094;-1.628;2023-04-29T18:40:31;23.70;50.10
40738;DHT22;54759;48.094;-1.628;2023-04-29T18:43:32;23.90;50.30
40738;DHT22;54759;48.094;-1.628;2023-04-29T18:46:34;24.00;50.60
40738;DHT22;54759;48.094;-1.628;2023-04-29T18:49:36;24.00;50.90
40738;DHT22;54759;48.094;-1.628;2023-04-29T18:52:40;23.70;50.90
40738;DHT22;54759;48.094;-1.628;2023-04-29T18:55:44;24.00;51.10
40738;DHT22;54759;48.094;-1.628;2023-04-29T18:58:48;24.00;51.60
40738;DHT22;54759;48.094;-1.628;2023-04-29T19:01:53;24.00;51.90